Gano, Texas
Current Conditions -  °F | °C
As of 6:58 PM on Monday 26 Jan 2015 (Local Time) from KGRK Reporting Station
Clear Clear  
Wind Chill: 64°   Ceiling: Unl
Heat Index: 64°   Visibility: 10mi
Dew Point: 34°   Wind: 8mph
Humidity: 33%   Direction: 270°W
Pressure: 30.15"   Gusts: NA
Location:  30.5951°N, 97.1399°W
Report Text: KGRK 270058Z AUTO 27007KT 10SM CLR 18/01 A3015 RMK AO2 SLP209 T01750010
Loading
Personal Weather Stations






























Interactive Weather Map New forecast layout! Learn more

10-Day Weather Forecast

Advertisements
Track Severe Weather on mobile